createdAt,value
2019-01-23T00:01:44.463Z,2.05
2019-01-23T00:04:14.345Z,2.17
2019-01-23T00:06:43.865Z,2.12
2019-01-23T00:09:13.373Z,2.17
2019-01-23T00:11:42.911Z,2.12
2019-01-23T00:14:12.389Z,2.27
2019-01-23T00:16:41.896Z,2.25
2019-01-23T00:19:11.368Z,2.33
2019-01-23T00:21:41.011Z,2.40
2019-01-23T00:24:10.488Z,2.49
2019-01-23T00:26:40.094Z,2.52
2019-01-23T00:29:09.602Z,2.48
2019-01-23T00:31:39.062Z,2.63
2019-01-23T00:34:08.859Z,2.76
2019-01-23T00:36:38.385Z,2.83
2019-01-23T00:39:09.113Z,2.86
2019-01-23T00:41:38.632Z,2.80
2019-01-23T00:44:08.139Z,2.80
2019-01-23T00:46:37.637Z,2.87
2019-01-23T00:49:07.124Z,2.94
2019-01-23T00:51:36.622Z,3.02
2019-01-23T00:54:06.393Z,3.05
2019-01-23T00:56:35.900Z,3.06
2019-01-23T00:59:05.491Z,3.03
2019-01-23T01:01:35.104Z,3.07
2019-01-23T01:04:04.696Z,3.06
2019-01-23T01:06:34.208Z,2.86
2019-01-23T01:09:05.162Z,2.85
2019-01-23T01:11:34.670Z,2.93
2019-01-23T01:14:04.454Z,3.01
2019-01-23T01:16:33.923Z,3.03
2019-01-23T01:19:03.397Z,3.02
2019-01-23T01:21:32.842Z,2.91
2019-01-23T01:24:02.388Z,2.93
2019-01-23T01:26:31.893Z,2.84
2019-01-23T01:29:01.412Z,2.85
2019-01-23T01:31:32.694Z,2.84
2019-01-23T01:34:02.174Z,2.93
2019-01-23T01:36:31.656Z,2.87
2019-01-23T01:39:01.222Z,2.87
2019-01-23T01:41:30.728Z,2.86
2019-01-23T01:44:00.201Z,2.85
2019-01-23T01:46:29.670Z,2.96
2019-01-23T01:48:59.122Z,3.04
2019-01-23T01:51:28.604Z,3.11
2019-01-23T01:53:58.112Z,3.00
2019-01-23T01:56:27.625Z,2.97
2019-01-23T01:59:02.749Z,3.05
2019-01-23T02:01:28.347Z,3.06
2019-01-23T02:03:57.790Z,3.05
2019-01-23T02:06:27.272Z,3.10
2019-01-23T02:08:56.770Z,3.09
2019-01-23T02:11:26.225Z,3.07
2019-01-23T02:13:55.714Z,2.97
2019-01-23T02:16:25.185Z,2.83
2019-01-23T02:18:54.696Z,2.84
2019-01-23T02:21:24.190Z,2.82
2019-01-23T02:23:53.707Z,2.78
2019-01-23T02:26:23.204Z,2.78
2019-01-23T02:28:52.726Z,2.73
2019-01-23T02:31:22.203Z,2.75
2019-01-23T02:33:51.945Z,2.79
2019-01-23T02:36:21.452Z,2.74
2019-01-23T02:38:50.939Z,2.80
2019-01-23T02:41:20.429Z,2.85
2019-01-23T02:43:49.901Z,2.83
2019-01-23T02:46:19.383Z,2.81
2019-01-23T02:48:48.832Z,2.84
2019-01-23T02:51:18.348Z,2.84
2019-01-23T02:53:47.819Z,2.82
2019-01-23T02:56:17.335Z,2.85
2019-01-23T02:58:46.821Z,2.87
2019-01-23T03:01:16.336Z,2.88
2019-01-23T03:03:45.841Z,2.94
2019-01-23T03:06:15.294Z,2.87
2019-01-23T03:08:44.830Z,2.87
2019-01-23T03:11:14.312Z,2.86
2019-01-23T03:13:43.811Z,2.84
2019-01-23T03:16:13.285Z,2.90
2019-01-23T03:18:42.816Z,2.98
2019-01-23T03:21:12.321Z,3.04
2019-01-23T03:23:41.819Z,3.09
2019-01-23T03:26:11.315Z,3.08
2019-01-23T03:28:40.775Z,3.05
2019-01-23T03:31:10.309Z,3.04
2019-01-23T03:33:39.776Z,3.05
2019-01-23T03:36:09.272Z,3.11
2019-01-23T03:38:38.755Z,3.03
2019-01-23T03:41:08.227Z,2.98
2019-01-23T03:43:37.719Z,3.00
2019-01-23T03:46:07.214Z,3.05
2019-01-23T03:48:36.726Z,2.96
2019-01-23T03:51:06.233Z,2.85
2019-01-23T03:53:35.727Z,2.79
2019-01-23T03:56:05.566Z,2.82
2019-01-23T03:58:35.106Z,2.87
2019-01-23T04:01:04.588Z,2.76
2019-01-23T04:03:34.192Z,2.74
2019-01-23T04:06:03.740Z,2.73
2019-01-23T04:08:33.234Z,2.86
2019-01-23T04:11:02.747Z,2.92
2019-01-23T04:13:32.243Z,3.00
2019-01-23T04:16:01.706Z,2.97
2019-01-23T04:18:31.186Z,2.95
2019-01-23T04:21:00.662Z,2.99
2019-01-23T04:23:30.203Z,3.04
2019-01-23T04:25:59.673Z,3.05
2019-01-23T04:28:29.203Z,3.00
2019-01-23T04:30:58.662Z,3.04
2019-01-23T04:33:28.120Z,3.00
2019-01-23T04:35:57.618Z,3.01
2019-01-23T04:38:27.116Z,3.07
2019-01-23T04:40:56.632Z,3.06
2019-01-23T04:43:26.101Z,3.08
2019-01-23T04:45:55.545Z,3.13
2019-01-23T04:48:25.039Z,3.17
2019-01-23T04:51:31.634Z,3.13
2019-01-23T04:54:01.460Z,3.16
2019-01-23T04:56:30.973Z,3.14
2019-01-23T04:59:00.484Z,3.08
2019-01-23T05:01:30.031Z,2.90
2019-01-23T05:03:59.578Z,2.92
2019-01-23T05:06:29.114Z,2.98
2019-01-23T05:08:58.646Z,3.05
2019-01-23T05:11:28.154Z,3.03
2019-01-23T05:13:57.759Z,3.15
2019-01-23T05:16:27.227Z,3.08
2019-01-23T05:18:56.842Z,2.99
2019-01-23T05:21:26.350Z,2.95
2019-01-23T05:23:55.849Z,2.98
2019-01-23T05:26:25.364Z,2.82
2019-01-23T05:28:54.904Z,2.82
2019-01-23T05:31:24.429Z,2.80
2019-01-23T05:33:53.959Z,2.79
2019-01-23T05:36:23.461Z,2.88
2019-01-23T05:38:52.938Z,2.85
2019-01-23T05:41:22.461Z,2.86
2019-01-23T05:43:51.953Z,2.95
2019-01-23T05:46:21.446Z,3.01
2019-01-23T05:48:50.956Z,2.98
2019-01-23T05:51:20.517Z,2.98
2019-01-23T05:53:50.004Z,2.99
2019-01-23T05:56:19.498Z,3.06
2019-01-23T05:58:48.970Z,3.02
2019-01-23T06:01:18.535Z,2.87
2019-01-23T06:03:47.988Z,2.89
2019-01-23T06:06:17.528Z,2.93
2019-01-23T06:08:47.025Z,2.95
2019-01-23T06:11:16.482Z,2.68
2019-01-23T06:13:46.408Z,2.71
2019-01-23T06:16:15.890Z,2.71
2019-01-23T06:18:45.654Z,2.75
2019-01-23T06:21:15.178Z,2.92
2019-01-23T06:23:44.657Z,3.05
2019-01-23T06:26:14.194Z,3.16
2019-01-23T06:28:43.760Z,3.25
2019-01-23T06:31:13.349Z,3.28
2019-01-23T06:33:42.855Z,3.43
2019-01-23T06:36:13.440Z,3.39
2019-01-23T06:38:42.937Z,3.45
2019-01-23T06:41:12.449Z,3.39
2019-01-23T06:43:41.966Z,3.46
2019-01-23T06:46:11.497Z,3.35
2019-01-23T06:48:41.423Z,3.33
2019-01-23T06:51:10.905Z,3.35
2019-01-23T06:53:40.502Z,3.46
2019-01-23T06:56:09.970Z,3.56
2019-01-23T06:58:39.466Z,3.60
2019-01-23T07:01:09.146Z,3.65
2019-01-23T07:03:38.687Z,3.61
2019-01-23T07:06:08.233Z,3.73
2019-01-23T07:08:37.731Z,3.75
2019-01-23T07:11:07.362Z,3.87
2019-01-23T07:13:36.908Z,3.89
2019-01-23T07:16:06.405Z,3.81
2019-01-23T07:18:35.959Z,3.76
2019-01-23T07:21:05.617Z,3.77
2019-01-23T07:23:38.932Z,3.63
2019-01-23T07:26:08.446Z,3.71
2019-01-23T07:28:37.928Z,3.73
2019-01-23T07:31:07.443Z,3.82
2019-01-23T07:33:36.910Z,3.89
2019-01-23T07:36:06.389Z,3.85
2019-01-23T07:38:35.885Z,3.87
2019-01-23T07:41:05.391Z,3.81
2019-01-23T07:43:34.878Z,3.70
2019-01-23T07:46:04.785Z,3.69
2019-01-23T07:48:34.268Z,3.62
2019-01-23T07:51:03.857Z,3.63
2019-01-23T07:53:33.416Z,3.68
2019-01-23T07:56:02.950Z,3.70
2019-01-23T07:58:32.513Z,3.59
2019-01-23T08:01:01.959Z,3.64
2019-01-23T08:03:31.489Z,3.60
2019-01-23T08:06:01.074Z,3.62
2019-01-23T08:08:31.023Z,3.59
2019-01-23T08:11:00.533Z,3.57
2019-01-23T08:13:30.043Z,3.56
2019-01-23T08:15:59.570Z,3.60
2019-01-23T08:18:29.049Z,3.71
2019-01-23T08:20:58.572Z,3.78
2019-01-23T08:23:28.060Z,3.79
2019-01-23T08:25:57.670Z,3.87
2019-01-23T08:28:27.183Z,3.97
2019-01-23T08:30:56.708Z,4.17
2019-01-23T08:33:26.255Z,4.25
2019-01-23T08:35:55.835Z,4.33
2019-01-23T08:38:25.369Z,4.42
2019-01-23T08:40:54.919Z,4.42
2019-01-23T08:43:24.420Z,4.52
2019-01-23T08:45:54.645Z,4.37
2019-01-23T08:48:24.161Z,4.55
2019-01-23T08:50:53.638Z,4.71
2019-01-23T08:53:23.117Z,4.94
2019-01-23T08:55:55.068Z,5.00
2019-01-23T08:58:24.587Z,5.08
2019-01-23T09:00:54.117Z,5.27
2019-01-23T09:03:23.782Z,5.32
2019-01-23T09:05:53.528Z,5.43
2019-01-23T09:08:22.998Z,5.46
2019-01-23T09:10:52.539Z,5.56
2019-01-23T09:13:22.006Z,5.60
2019-01-23T09:15:51.548Z,5.69
2019-01-23T09:18:21.154Z,5.69
2019-01-23T09:20:52.451Z,5.81
2019-01-23T09:23:22.044Z,5.80
2019-01-23T09:25:51.721Z,5.79
2019-01-23T09:28:21.280Z,5.80
2019-01-23T09:31:22.886Z,5.75
2019-01-23T09:34:26.164Z,5.74
2019-01-23T09:37:40.117Z,5.44
2019-01-23T09:40:33.652Z,5.45
2019-01-23T09:43:32.766Z,5.51
2019-01-23T09:46:24.541Z,5.33
2019-01-23T09:49:15.310Z,5.34
2019-01-23T09:52:28.827Z,5.45
2019-01-23T09:54:58.337Z,5.46
2019-01-23T09:57:27.875Z,5.32
2019-01-23T09:59:57.463Z,5.15
2019-01-23T10:02:27.040Z,5.15
2019-01-23T10:04:56.499Z,5.27
2019-01-23T10:07:26.017Z,5.32
2019-01-23T10:09:55.525Z,5.44
2019-01-23T10:12:25.057Z,5.59
2019-01-23T10:14:54.578Z,5.59
2019-01-23T10:17:24.277Z,5.72
2019-01-23T10:19:53.788Z,5.86
2019-01-23T10:22:23.517Z,5.99
2019-01-23T10:24:53.037Z,6.08
2019-01-23T10:27:22.581Z,6.18
2019-01-23T10:29:52.163Z,6.31
2019-01-23T10:32:21.815Z,6.28
2019-01-23T10:34:51.294Z,6.54
2019-01-23T10:37:20.794Z,6.82
2019-01-23T10:39:50.312Z,6.96
2019-01-23T10:42:19.828Z,6.91
2019-01-23T10:44:49.397Z,6.99
2019-01-23T10:47:18.934Z,7.05
2019-01-23T10:49:48.448Z,7.06
2019-01-23T10:52:18.058Z,6.73
2019-01-23T10:54:47.562Z,6.84
2019-01-23T10:57:17.054Z,6.96
2019-01-23T10:59:46.563Z,6.76
2019-01-23T11:02:16.129Z,6.71
2019-01-23T11:04:45.676Z,6.61
2019-01-23T11:07:15.224Z,6.51
2019-01-23T11:09:44.712Z,6.31
2019-01-23T11:12:14.231Z,6.16
2019-01-23T11:14:43.746Z,6.17
2019-01-23T11:17:13.377Z,6.16
2019-01-23T11:19:42.956Z,6.25
2019-01-23T11:22:12.501Z,6.39
2019-01-23T11:24:42.125Z,6.36
2019-01-23T11:27:11.674Z,6.27
2019-01-23T11:29:41.187Z,6.38
2019-01-23T11:32:10.697Z,6.62
2019-01-23T11:34:40.200Z,6.72
2019-01-23T11:37:09.729Z,6.87
2019-01-23T11:39:39.247Z,6.96
2019-01-23T11:42:08.759Z,7.03
2019-01-23T11:44:38.309Z,7.10
2019-01-23T11:47:07.801Z,7.14
2019-01-23T11:49:37.251Z,7.17
2019-01-23T11:52:06.880Z,7.11
2019-01-23T11:54:36.480Z,7.14
2019-01-23T11:57:06.173Z,7.09
2019-01-23T11:59:35.812Z,6.97
2019-01-23T12:02:05.952Z,7.16
2019-01-23T12:04:35.419Z,7.27
2019-01-23T12:07:05.237Z,7.42
2019-01-23T12:09:34.704Z,7.45
2019-01-23T12:12:04.280Z,7.53
2019-01-23T12:14:33.853Z,7.52
2019-01-23T12:17:03.290Z,7.61
2019-01-23T12:19:32.830Z,7.53
2019-01-23T12:22:02.355Z,7.57
2019-01-23T12:24:31.897Z,7.66
2019-01-23T12:27:01.421Z,7.66
2019-01-23T12:29:30.937Z,7.62
2019-01-23T12:32:00.456Z,7.64
2019-01-23T12:34:30.116Z,7.66
2019-01-23T12:36:59.970Z,7.47
2019-01-23T12:39:29.685Z,7.56
2019-01-23T12:41:59.521Z,7.56
2019-01-23T12:44:29.267Z,7.42
2019-01-23T12:46:58.895Z,7.47
2019-01-23T12:49:28.541Z,7.51
2019-01-23T12:52:00.829Z,7.56
2019-01-23T12:54:30.373Z,7.51
2019-01-23T12:57:00.138Z,7.51
2019-01-23T12:59:33.204Z,7.39
2019-01-23T13:02:09.600Z,7.39
2019-01-23T13:04:34.095Z,7.46
2019-01-23T13:07:03.653Z,7.44
2019-01-23T13:09:33.469Z,7.40
2019-01-23T13:12:03.108Z,7.51
2019-01-23T13:14:32.674Z,7.63
2019-01-23T13:17:02.160Z,7.46
2019-01-23T13:19:31.675Z,7.59
2019-01-23T13:22:01.501Z,7.61
2019-01-23T13:24:31.261Z,7.64
2019-01-23T13:27:02.875Z,7.65
2019-01-23T13:29:32.389Z,7.67
2019-01-23T13:32:01.991Z,7.58
2019-01-23T13:34:31.521Z,7.62
2019-01-23T13:37:01.133Z,7.55
2019-01-23T13:39:30.704Z,7.58
2019-01-23T13:42:00.185Z,7.54
2019-01-23T13:44:29.726Z,7.48
2019-01-23T13:46:59.301Z,7.51
2019-01-23T13:49:29.061Z,7.45
2019-01-23T13:51:58.698Z,7.40
2019-01-23T13:54:28.258Z,7.39
2019-01-23T13:56:57.866Z,7.27
2019-01-23T13:59:27.462Z,7.19
2019-01-23T14:01:57.116Z,7.13
2019-01-23T14:04:26.682Z,7.10
2019-01-23T14:06:56.281Z,6.98
2019-01-23T14:09:25.878Z,6.87
2019-01-23T14:11:55.479Z,6.76
2019-01-23T14:14:25.012Z,6.60
2019-01-23T14:16:54.538Z,6.60
2019-01-23T14:19:24.077Z,6.58
2019-01-23T14:21:53.615Z,6.68
2019-01-23T14:24:23.086Z,6.72
2019-01-23T14:26:52.560Z,6.82
2019-01-23T14:29:22.073Z,6.78
2019-01-23T14:31:51.613Z,6.84
2019-01-23T14:34:21.204Z,6.74
2019-01-23T14:36:50.707Z,6.59
2019-01-23T14:39:20.214Z,6.58
2019-01-23T14:41:49.828Z,6.42
2019-01-23T14:44:19.395Z,6.20
2019-01-23T14:46:49.751Z,6.01
2019-01-23T14:49:19.295Z,6.01
2019-01-23T14:51:48.898Z,5.87
2019-01-23T14:54:18.469Z,5.85
2019-01-23T14:56:47.986Z,5.84
2019-01-23T14:59:17.496Z,5.70
2019-01-23T15:01:47.104Z,5.67
2019-01-23T15:04:16.681Z,5.58
2019-01-23T15:06:46.213Z,5.49
2019-01-23T15:09:15.756Z,5.51
2019-01-23T15:11:45.265Z,5.48
2019-01-23T15:14:14.819Z,5.50
2019-01-23T15:16:44.385Z,5.51
2019-01-23T15:19:13.906Z,5.48
2019-01-23T15:21:43.505Z,5.51
2019-01-23T15:24:13.121Z,5.59
2019-01-23T15:26:42.568Z,5.56
2019-01-23T15:29:12.084Z,5.56
2019-01-23T15:31:41.662Z,5.54
2019-01-23T15:34:11.256Z,5.48
2019-01-23T15:36:40.831Z,5.49
2019-01-23T15:39:10.327Z,5.43
2019-01-23T15:41:39.875Z,5.49
2019-01-23T15:44:09.376Z,5.44
2019-01-23T15:46:38.869Z,5.51
2019-01-23T15:49:08.393Z,5.45
2019-01-23T15:51:38.023Z,5.46
2019-01-23T15:54:07.556Z,5.44
2019-01-23T15:56:37.039Z,5.41
2019-01-23T15:59:06.551Z,5.43
2019-01-23T16:01:36.014Z,5.42
2019-01-23T16:04:05.640Z,5.51
2019-01-23T16:06:35.208Z,5.55
2019-01-23T16:09:06.525Z,5.52
2019-01-23T16:11:36.064Z,5.43
2019-01-23T16:14:05.715Z,5.45
2019-01-23T16:16:35.218Z,5.56
2019-01-23T16:19:05.137Z,5.63
2019-01-23T16:21:36.623Z,5.62
2019-01-23T16:24:07.602Z,5.66
2019-01-23T16:26:37.473Z,5.63
2019-01-23T16:29:07.019Z,5.62
2019-01-23T16:31:36.823Z,5.59
2019-01-23T16:34:06.346Z,5.61
2019-01-23T16:36:35.915Z,5.61
2019-01-23T16:39:08.158Z,5.61
2019-01-23T16:41:37.675Z,5.59
2019-01-23T16:44:07.217Z,5.58
2019-01-23T16:46:36.846Z,5.61
2019-01-23T16:49:06.401Z,5.65
2019-01-23T16:51:35.914Z,5.65
2019-01-23T16:54:05.531Z,5.56
2019-01-23T16:56:35.162Z,5.55
2019-01-23T16:59:05.309Z,5.53
2019-01-23T17:01:34.926Z,5.37
2019-01-23T17:04:04.876Z,5.48
2019-01-23T17:06:36.751Z,5.38
2019-01-23T17:09:09.008Z,5.42
2019-01-23T17:11:38.535Z,5.28
2019-01-23T17:14:08.016Z,5.14
2019-01-23T17:16:37.517Z,5.06
2019-01-23T17:19:07.016Z,5.08
2019-01-23T17:21:36.574Z,4.88
2019-01-23T17:24:06.677Z,4.84
2019-01-23T17:26:36.185Z,4.78
2019-01-23T17:29:06.142Z,4.70
2019-01-23T17:31:35.707Z,4.61
2019-01-23T17:34:05.892Z,4.64
2019-01-23T17:36:35.421Z,4.57
2019-01-23T17:39:08.352Z,4.58
2019-01-23T17:41:37.983Z,4.55
2019-01-23T17:44:07.828Z,4.50
2019-01-23T17:46:37.483Z,4.47
2019-01-23T17:49:09.130Z,4.46
2019-01-23T17:51:38.825Z,4.43
2019-01-23T17:54:09.663Z,4.43
2019-01-23T17:56:39.503Z,4.41
2019-01-23T17:59:09.125Z,4.39
2019-01-23T18:01:39.869Z,4.42
2019-01-23T18:04:09.546Z,4.41
2019-01-23T18:06:39.077Z,4.48
2019-01-23T18:09:10.031Z,4.44
2019-01-23T18:11:39.568Z,4.50
2019-01-23T18:14:09.132Z,4.54
2019-01-23T18:16:38.697Z,4.60
2019-01-23T18:19:09.387Z,4.65
2019-01-23T18:21:39.067Z,4.69
2019-01-23T18:24:08.687Z,4.74
2019-01-23T18:26:38.288Z,4.75
2019-01-23T18:29:11.914Z,4.83
2019-01-23T18:31:52.337Z,4.80
2019-01-23T18:35:05.098Z,4.80
2019-01-23T18:37:52.456Z,4.82
2019-01-23T18:41:09.464Z,4.85
2019-01-23T18:44:13.177Z,4.87
2019-01-23T18:47:23.581Z,4.89
2019-01-23T18:50:30.906Z,4.92
2019-01-23T18:53:00.510Z,4.95
2019-01-23T18:55:31.863Z,4.95
2019-01-23T18:58:01.444Z,4.90
2019-01-23T19:00:31.307Z,4.92
2019-01-23T19:03:06.978Z,4.89
2019-01-23T19:05:32.100Z,4.90
2019-01-23T19:08:01.809Z,4.93
2019-01-23T19:10:31.584Z,4.95
2019-01-23T19:13:01.070Z,4.93
2019-01-23T19:15:31.836Z,4.94
2019-01-23T19:18:02.395Z,5.02
2019-01-23T19:20:33.011Z,5.07
2019-01-23T19:23:02.621Z,5.08
2019-01-23T19:25:32.125Z,5.05
2019-01-23T19:28:05.063Z,4.96
2019-01-23T19:30:34.894Z,5.05
2019-01-23T19:33:06.706Z,5.04
2019-01-23T19:35:37.049Z,5.04
2019-01-23T19:38:09.327Z,5.08
2019-01-23T19:40:38.902Z,5.09
2019-01-23T19:43:11.451Z,5.08
2019-01-23T19:45:41.182Z,5.08
2019-01-23T19:48:10.987Z,5.13
2019-01-23T19:50:40.757Z,5.18
2019-01-23T19:53:12.741Z,5.16
2019-01-23T19:55:43.516Z,5.10
2019-01-23T19:58:16.920Z,5.14
2019-01-23T20:00:47.446Z,5.13
2019-01-23T20:03:20.462Z,5.15
2019-01-23T20:05:48.396Z,5.12
2019-01-23T20:08:18.136Z,5.04
2019-01-23T20:10:47.845Z,5.16
2019-01-23T20:13:19.869Z,5.16
2019-01-23T20:15:51.105Z,5.14
2019-01-23T20:18:20.679Z,5.15
2019-01-23T20:20:50.330Z,5.14
2019-01-23T20:23:19.898Z,5.16
2019-01-23T20:25:49.463Z,5.19
2019-01-23T20:28:19.134Z,5.16
2019-01-23T20:30:51.394Z,5.18
2019-01-23T20:33:27.726Z,5.19
2019-01-23T20:35:52.422Z,5.26
2019-01-23T20:38:23.282Z,5.26
2019-01-23T20:40:52.927Z,5.24
2019-01-23T20:43:22.683Z,5.22
2019-01-23T20:45:52.319Z,5.24
2019-01-23T20:48:21.933Z,5.23
2019-01-23T20:50:53.854Z,5.20
2019-01-23T20:53:23.399Z,5.19
2019-01-23T20:55:53.022Z,5.13
2019-01-23T20:58:22.697Z,5.17
2019-01-23T21:00:52.395Z,5.10
2019-01-23T21:03:22.045Z,5.08
2019-01-23T21:05:52.217Z,5.16
2019-01-23T21:08:25.265Z,5.18
2019-01-23T21:10:55.138Z,5.18
2019-01-23T21:13:24.802Z,5.23
2019-01-23T21:15:54.589Z,5.27
2019-01-23T21:18:24.220Z,5.29
2019-01-23T21:20:53.868Z,5.37
2019-01-23T21:23:23.379Z,5.45
2019-01-23T21:25:53.141Z,5.54
2019-01-23T21:28:22.662Z,5.55
2019-01-23T21:30:54.129Z,5.41
2019-01-23T21:33:23.788Z,5.47
2019-01-23T21:35:53.471Z,5.53
2019-01-23T21:38:23.131Z,5.59
2019-01-23T21:40:52.825Z,5.62
2019-01-23T21:43:22.524Z,5.50
2019-01-23T21:45:52.240Z,5.48
2019-01-23T21:48:30.133Z,5.47
2019-01-23T21:51:02.237Z,5.39
2019-01-23T21:53:33.554Z,5.28
2019-01-23T21:56:06.764Z,5.35
2019-01-23T21:58:36.839Z,5.32
2019-01-23T22:01:11.336Z,5.43
2019-01-23T22:03:49.099Z,5.47
2019-01-23T22:06:14.382Z,5.46
2019-01-23T22:08:44.133Z,5.44
2019-01-23T22:11:13.791Z,5.43
2019-01-23T22:13:43.469Z,5.37
2019-01-23T22:16:13.263Z,5.44
2019-01-23T22:18:43.340Z,5.45
2019-01-23T22:21:14.760Z,5.52
2019-01-23T22:23:44.462Z,5.62
2019-01-23T22:26:14.044Z,5.70
2019-01-23T22:28:43.738Z,5.78
2019-01-23T22:31:13.279Z,5.82
2019-01-23T22:33:42.780Z,5.84
2019-01-23T22:36:12.353Z,5.89
2019-01-23T22:38:41.818Z,5.93
2019-01-23T22:41:11.278Z,6.00
2019-01-23T22:43:41.247Z,6.10
2019-01-23T22:46:10.768Z,6.10
2019-01-23T22:48:40.251Z,5.98
2019-01-23T22:51:09.747Z,5.93
2019-01-23T22:53:39.222Z,5.96
2019-01-23T22:56:08.668Z,5.99
2019-01-23T22:58:38.175Z,6.04
2019-01-23T23:01:14.530Z,6.08
2019-01-23T23:03:44.045Z,6.16
2019-01-23T23:06:13.524Z,6.21
2019-01-23T23:08:42.994Z,6.26
2019-01-23T23:11:12.495Z,6.31
2019-01-23T23:13:42.011Z,6.32
2019-01-23T23:16:11.597Z,6.33
2019-01-23T23:18:41.099Z,6.34
2019-01-23T23:21:10.629Z,6.43
2019-01-23T23:23:40.139Z,6.40
2019-01-23T23:26:09.607Z,6.34
2019-01-23T23:28:39.110Z,6.33
2019-01-23T23:31:08.618Z,6.28
2019-01-23T23:33:38.113Z,6.25
2019-01-23T23:36:07.727Z,6.28
2019-01-23T23:38:37.177Z,6.30
2019-01-23T23:41:06.659Z,6.23
2019-01-23T23:43:36.126Z,6.24
2019-01-23T23:46:05.646Z,6.20
2019-01-23T23:48:35.112Z,6.16
2019-01-23T23:51:04.700Z,6.13
2019-01-23T23:53:34.209Z,6.10
2019-01-23T23:56:03.778Z,6.01
2019-01-23T23:58:33.258Z,5.97
